Terminal Aerodrome Forecast
Issued by NWS

Home | Current Version | Previous Version | Text Only | Print | Product List | Glossary Off
Versions: 1 2 3 4 5 6 7 8 9 10 11 12 13 14 15 16 17 18 19 20 21

000
FTUS43 KDLH 282300
TAFBRD
TAF
KBRD 282339Z 2900/2924 VRB04KT P6SM OVC080
      TEMPO 2900/2903 5SM -RA BR OVC015
     FM290300 13006KT 6SM -RA BR OVC015
      TEMPO 2904/2908 2SM -SHRA BR OVC009
     FM290800 08005KT 2SM -SHRA BR OVC005
     FM291600 08004KT 3SM -SHRA BR VCTS OVC008CB=

USA.gov is the U.S. government's official web portal to all federal, state and local government web resources and services.